createdAt,value
2023-01-15T00:04:57.821Z,74.27
2023-01-15T00:09:59.745Z,74.45
2023-01-15T00:15:01.786Z,74.37
2023-01-15T00:20:04.270Z,74.46
2023-01-15T00:25:25.826Z,74.36
2023-01-15T00:30:27.752Z,74.25
2023-01-15T00:35:29.656Z,74.24
2023-01-15T00:40:31.509Z,74.19
2023-01-15T00:45:36.572Z,73.95
2023-01-15T00:50:39.110Z,74.06
2023-01-15T00:55:41.066Z,74.00
2023-01-15T01:00:43.029Z,73.95
2023-01-15T01:05:44.876Z,73.96
2023-01-15T01:10:46.675Z,73.78
2023-01-15T01:15:49.566Z,73.87
2023-01-15T01:20:52.428Z,73.84
2023-01-15T01:25:54.175Z,73.88
2023-01-15T01:30:57.966Z,73.98
2023-01-15T01:36:00.123Z,73.87
2023-01-15T01:41:02.003Z,73.92
2023-01-15T01:46:04.000Z,73.75
2023-01-15T01:51:06.308Z,73.88
2023-01-15T01:56:13.049Z,73.92
2023-01-15T02:01:15.370Z,73.82
2023-01-15T02:06:18.174Z,73.86
2023-01-15T02:11:22.713Z,73.92
2023-01-15T02:16:35.221Z,73.93
2023-01-15T02:21:39.931Z,73.99
2023-01-15T02:27:06.085Z,74.06
2023-01-15T02:32:15.227Z,74.04
2023-01-15T02:37:24.779Z,73.98
2023-01-15T02:42:30.509Z,74.08
2023-01-15T02:47:36.817Z,73.98
2023-01-15T02:52:48.250Z,74.03
2023-01-15T02:57:57.997Z,73.87
2023-01-15T03:03:16.826Z,74.01
2023-01-15T03:08:19.221Z,74.02
2023-01-15T03:13:33.639Z,74.06
2023-01-15T03:18:47.519Z,74.06
2023-01-15T03:23:53.562Z,73.89
2023-01-15T03:29:01.005Z,73.88
2023-01-15T03:34:04.513Z,73.92
2023-01-15T03:39:07.395Z,73.96
2023-01-15T03:45:02.309Z,74.07
2023-01-15T03:50:19.198Z,73.98
2023-01-15T03:55:54.381Z,74.41
2023-01-15T04:01:00.570Z,74.52
2023-01-15T04:06:04.843Z,74.82
2023-01-15T04:11:08.374Z,74.61
2023-01-15T04:16:26.067Z,74.63
2023-01-15T04:21:28.003Z,74.70
2023-01-15T04:26:30.061Z,74.63
2023-01-15T04:31:33.574Z,74.58
2023-01-15T04:36:38.228Z,74.60
2023-01-15T04:41:58.212Z,74.93
2023-01-15T04:47:00.895Z,74.75
2023-01-15T04:52:02.929Z,74.90
2023-01-15T04:57:05.050Z,74.96
2023-01-15T05:02:07.198Z,75.03
2023-01-15T05:07:10.037Z,74.80
2023-01-15T05:12:12.034Z,74.87
2023-01-15T05:17:14.032Z,75.02
2023-01-15T05:22:16.069Z,75.07
2023-01-15T05:27:17.865Z,74.95
2023-01-15T05:32:19.589Z,74.93
2023-01-15T05:37:21.344Z,75.06
2023-01-15T05:42:23.130Z,74.97
2023-01-15T05:47:24.844Z,74.82
2023-01-15T05:52:26.628Z,74.89
2023-01-15T05:57:28.369Z,74.75
2023-01-15T06:02:30.395Z,74.70
2023-01-15T06:07:32.234Z,74.82
2023-01-15T06:12:34.035Z,74.67
2023-01-15T06:17:35.983Z,74.72
2023-01-15T06:22:39.020Z,74.50
2023-01-15T06:27:40.887Z,74.50
2023-01-15T06:32:42.962Z,74.48
2023-01-15T06:37:44.775Z,74.42
2023-01-15T06:43:05.233Z,74.40
2023-01-15T06:48:07.984Z,74.19
2023-01-15T06:53:09.804Z,75.40
2023-01-15T06:58:11.692Z,76.38
2023-01-15T07:03:14.502Z,76.98
2023-01-15T07:08:16.330Z,77.01
2023-01-15T07:13:18.196Z,76.60
2023-01-15T07:18:20.044Z,76.00
2023-01-15T07:23:23.032Z,76.05
2023-01-15T07:28:25.279Z,75.81
2023-01-15T07:33:27.024Z,75.62
2023-01-15T07:38:29.304Z,75.43
2023-01-15T07:43:49.719Z,75.33
2023-01-15T07:49:11.905Z,75.10
2023-01-15T07:54:13.921Z,74.97
2023-01-15T07:59:15.787Z,74.84
2023-01-15T08:04:17.683Z,74.90
2023-01-15T08:09:25.989Z,74.74
2023-01-15T08:14:46.122Z,74.67
2023-01-15T08:19:47.920Z,74.82
2023-01-15T08:24:49.715Z,74.52
2023-01-15T08:29:51.557Z,74.53
2023-01-15T08:34:53.297Z,74.51
2023-01-15T08:39:55.170Z,74.33
2023-01-15T08:44:57.037Z,74.48
2023-01-15T08:49:59.154Z,74.41
2023-01-15T08:55:00.987Z,74.29
2023-01-15T09:00:02.734Z,74.53
2023-01-15T09:05:04.871Z,74.64
2023-01-15T09:10:07.412Z,74.60
2023-01-15T09:15:09.826Z,74.35
2023-01-15T09:20:14.165Z,74.28
2023-01-15T09:25:16.860Z,74.64
2023-01-15T09:30:20.902Z,74.71
2023-01-15T09:35:22.870Z,74.62
2023-01-15T09:40:57.978Z,74.84
2023-01-15T09:46:01.089Z,74.87
2023-01-15T09:51:36.558Z,74.99
2023-01-15T09:56:39.587Z,74.71
2023-01-15T10:01:43.099Z,75.08
2023-01-15T10:06:52.179Z,75.00
2023-01-15T10:12:21.032Z,75.11
2023-01-15T10:17:50.880Z,75.13
2023-01-15T10:23:17.766Z,75.13
2023-01-15T10:28:26.949Z,75.29
2023-01-15T10:33:40.639Z,75.22
2023-01-15T10:39:14.957Z,75.44
2023-01-15T10:44:29.828Z,75.46
2023-01-15T10:49:33.890Z,75.28
2023-01-15T10:54:41.249Z,75.30
2023-01-15T11:00:00.587Z,75.10
2023-01-15T11:05:04.362Z,74.75
2023-01-15T11:10:11.059Z,74.71
2023-01-15T11:15:41.411Z,74.57
2023-01-15T11:20:45.453Z,74.37
2023-01-15T11:25:59.707Z,74.22
2023-01-15T11:31:01.917Z,74.27
2023-01-15T11:36:19.227Z,74.13
2023-01-15T11:41:52.164Z,74.12
2023-01-15T11:47:14.488Z,73.92
2023-01-15T11:52:20.848Z,74.04
2023-01-15T11:57:37.292Z,74.18
2023-01-15T12:02:45.859Z,74.06
2023-01-15T12:07:51.044Z,73.97
2023-01-15T12:13:10.557Z,73.97
2023-01-15T12:18:34.103Z,73.86
2023-01-15T12:24:05.136Z,73.76
2023-01-15T12:29:30.063Z,73.62
2023-01-15T12:34:47.817Z,73.53
2023-01-15T12:40:17.811Z,73.35
2023-01-15T12:45:31.672Z,73.04
2023-01-15T12:50:46.519Z,72.92
2023-01-15T12:56:09.795Z,72.71
2023-01-15T13:01:31.272Z,72.40
2023-01-15T13:06:35.719Z,72.45
2023-01-15T13:11:37.603Z,72.31
2023-01-15T13:16:46.639Z,71.94
2023-01-15T13:21:53.046Z,71.93
2023-01-15T13:27:03.019Z,71.69
2023-01-15T13:32:09.905Z,71.55
2023-01-15T13:37:24.711Z,71.38
2023-01-15T13:42:33.530Z,71.03
2023-01-15T13:47:38.687Z,70.95
2023-01-15T13:52:40.862Z,70.96
2023-01-15T13:57:43.689Z,70.71
2023-01-15T14:02:54.032Z,70.56
2023-01-15T14:07:56.269Z,70.09
2023-01-15T14:13:28.322Z,69.95
2023-01-15T14:18:51.515Z,69.65
2023-01-15T14:24:05.397Z,69.70
2023-01-15T14:29:22.563Z,69.04
2023-01-15T14:34:28.655Z,68.86
2023-01-15T14:39:44.218Z,68.84
2023-01-15T14:44:46.995Z,68.62
2023-01-15T14:50:22.141Z,68.24
2023-01-15T14:55:24.791Z,68.30
2023-01-15T15:00:34.157Z,68.37
2023-01-15T15:05:36.293Z,68.18
2023-01-15T15:10:43.787Z,68.22
2023-01-15T15:16:27.083Z,68.04
2023-01-15T15:21:33.994Z,68.23
2023-01-15T15:26:38.938Z,67.94
2023-01-15T15:31:57.996Z,67.63
2023-01-15T15:37:03.351Z,67.50
2023-01-15T15:42:36.747Z,66.41
2023-01-15T15:47:59.027Z,66.24
2023-01-15T15:53:06.607Z,66.23
2023-01-15T15:58:18.026Z,65.47
2023-01-15T16:03:26.073Z,65.42
2023-01-15T16:08:29.932Z,64.50
2023-01-15T16:13:42.046Z,64.66
2023-01-15T16:18:47.412Z,64.81
2023-01-15T16:23:57.224Z,64.61
2023-01-15T16:29:03.025Z,64.82
2023-01-15T16:34:05.555Z,64.95
2023-01-15T16:39:46.546Z,65.37
2023-01-15T16:45:01.922Z,65.18
2023-01-15T16:50:23.752Z,65.20
2023-01-15T16:55:34.415Z,65.07
2023-01-15T17:00:36.460Z,65.06
2023-01-15T17:05:38.381Z,65.21
2023-01-15T17:10:40.238Z,65.47
2023-01-15T17:15:42.177Z,65.36
2023-01-15T17:20:46.115Z,65.34
2023-01-15T17:25:48.186Z,64.73
2023-01-15T17:30:52.737Z,64.83
2023-01-15T17:35:56.697Z,64.94
2023-01-15T17:40:59.340Z,64.75
2023-01-15T17:46:01.242Z,64.45
2023-01-15T17:51:05.613Z,64.56
2023-01-15T17:56:26.566Z,64.36
2023-01-15T18:01:49.492Z,64.58
2023-01-15T18:06:53.812Z,64.53
2023-01-15T18:11:55.629Z,64.57
2023-01-15T18:16:57.553Z,64.68
2023-01-15T18:21:59.411Z,64.58
2023-01-15T18:27:01.290Z,64.76
2023-01-15T18:32:03.246Z,64.51
2023-01-15T18:37:05.559Z,64.39
2023-01-15T18:42:07.499Z,64.45
2023-01-15T18:47:14.529Z,64.54
2023-01-15T18:52:35.476Z,64.41
2023-01-15T18:57:37.562Z,64.48
2023-01-15T19:02:39.607Z,64.42
2023-01-15T19:07:43.566Z,64.24
2023-01-15T19:12:45.641Z,64.29
2023-01-15T19:18:05.861Z,64.00
2023-01-15T19:23:07.776Z,63.97
2023-01-15T19:28:14.434Z,64.05
2023-01-15T19:33:16.459Z,63.93
2023-01-15T19:38:18.394Z,64.06
2023-01-15T19:43:38.936Z,63.78
2023-01-15T19:48:59.562Z,64.08
2023-01-15T19:54:03.209Z,64.23
2023-01-15T19:59:05.894Z,64.22
2023-01-15T20:04:07.706Z,64.16
2023-01-15T20:09:09.727Z,64.10
2023-01-15T20:14:11.623Z,63.83
2023-01-15T20:19:13.386Z,64.13
2023-01-15T20:24:15.260Z,63.92
2023-01-15T20:29:17.153Z,63.86
2023-01-15T20:34:19.247Z,64.18
2023-01-15T20:39:21.247Z,63.75
2023-01-15T20:44:41.567Z,63.81
2023-01-15T20:49:43.402Z,64.04
2023-01-15T20:54:45.474Z,63.91
2023-01-15T20:59:47.358Z,64.19
2023-01-15T21:04:49.224Z,63.84
2023-01-15T21:09:51.282Z,64.06
2023-01-15T21:14:53.067Z,64.24
2023-01-15T21:19:54.885Z,64.05
2023-01-15T21:24:58.262Z,64.49
2023-01-15T21:30:00.192Z,64.36
2023-01-15T21:35:02.327Z,64.29
2023-01-15T21:40:04.796Z,64.49
2023-01-15T21:45:08.182Z,64.69
2023-01-15T21:50:10.516Z,64.69
2023-01-15T21:55:13.428Z,64.47
2023-01-15T22:00:17.925Z,64.46
2023-01-15T22:05:19.763Z,64.78
2023-01-15T22:10:21.685Z,64.91
2023-01-15T22:15:24.057Z,64.57
2023-01-15T22:20:25.936Z,64.71
2023-01-15T22:25:27.756Z,65.12
2023-01-15T22:30:29.559Z,65.04
2023-01-15T22:35:31.420Z,65.20
2023-01-15T22:40:33.303Z,65.25
2023-01-15T22:45:35.291Z,65.43
2023-01-15T22:50:40.127Z,65.63
2023-01-15T22:55:41.949Z,65.25
2023-01-15T23:00:43.810Z,65.29
2023-01-15T23:05:45.669Z,65.38
2023-01-15T23:10:49.701Z,65.53
2023-01-15T23:15:58.484Z,65.67
2023-01-15T23:21:11.068Z,65.38
2023-01-15T23:26:16.369Z,65.62
2023-01-15T23:31:19.858Z,65.49
2023-01-15T23:36:22.631Z,65.56
2023-01-15T23:41:43.974Z,65.53
2023-01-15T23:46:45.933Z,65.66
2023-01-15T23:51:47.820Z,65.65
2023-01-15T23:56:49.604Z,65.72
